sensor_id;sensor_type;location;lat;lon;timestamp;P1;durP1;ratioP1;P2;durP2;ratioP2
53203;SDS011;39086;54.424;18.456;2023-03-31T00:00:04;12.85;;;5.32;;
53203;SDS011;39086;54.424;18.456;2023-03-31T00:01:12;12.57;;;5.78;;
53203;SDS011;39086;54.424;18.456;2023-03-31T00:02:15;7.10;;;5.63;;
53203;SDS011;39086;54.424;18.456;2023-03-31T00:03:22;11.88;;;5.75;;
53203;SDS011;39086;54.424;18.456;2023-03-31T00:04:26;10.18;;;5.80;;
53203;SDS011;39086;54.424;18.456;2023-03-31T00:05:30;10.05;;;5.28;;
53203;SDS011;39086;54.424;18.456;2023-03-31T00:06:34;9.68;;;5.35;;
53203;SDS011;39086;54.424;18.456;2023-03-31T00:07:38;13.23;;;5.75;;
53203;SDS011;39086;54.424;18.456;2023-03-31T00:08:41;9.75;;;5.32;;
53203;SDS011;39086;54.424;18.456;2023-03-31T00:09:44;8.60;;;5.28;;
53203;SDS011;39086;54.424;18.456;2023-03-31T00:10:48;7.25;;;4.95;;
53203;SDS011;39086;54.424;18.456;2023-03-31T00:11:51;11.32;;;5.97;;
53203;SDS011;39086;54.424;18.456;2023-03-31T00:12:54;12.00;;;5.55;;
53203;SDS011;39086;54.424;18.456;2023-03-31T00:13:56;6.32;;;4.45;;
53203;SDS011;39086;54.424;18.456;2023-03-31T00:15:00;8.20;;;5.53;;
53203;SDS011;39086;54.424;18.456;2023-03-31T00:16:04;7.47;;;5.25;;
53203;SDS011;39086;54.424;18.456;2023-03-31T00:17:08;12.63;;;5.50;;
53203;SDS011;39086;54.424;18.456;2023-03-31T00:18:11;11.95;;;5.30;;
53203;SDS011;39086;54.424;18.456;2023-03-31T00:19:14;7.35;;;5.40;;
53203;SDS011;39086;54.424;18.456;2023-03-31T00:20:18;8.30;;;4.72;;
53203;SDS011;39086;54.424;18.456;2023-03-31T00:21:24;9.88;;;5.05;;
53203;SDS011;39086;54.424;18.456;2023-03-31T00:22:30;9.45;;;4.53;;
53203;SDS011;39086;54.424;18.456;2023-03-31T00:23:33;13.50;;;4.80;;
53203;SDS011;39086;54.424;18.456;2023-03-31T00:24:35;11.98;;;4.90;;
53203;SDS011;39086;54.424;18.456;2023-03-31T00:25:39;9.80;;;4.55;;
53203;SDS011;39086;54.424;18.456;2023-03-31T00:26:41;11.40;;;4.95;;
53203;SDS011;39086;54.424;18.456;2023-03-31T00:27:45;5.88;;;4.25;;
53203;SDS011;39086;54.424;18.456;2023-03-31T00:28:50;8.25;;;4.60;;
53203;SDS011;39086;54.424;18.456;2023-03-31T00:29:53;7.57;;;4.70;;
53203;SDS011;39086;54.424;18.456;2023-03-31T00:30:58;6.85;;;4.45;;
53203;SDS011;39086;54.424;18.456;2023-03-31T00:32:02;6.93;;;4.40;;
53203;SDS011;39086;54.424;18.456;2023-03-31T00:33:06;8.40;;;3.70;;
53203;SDS011;39086;54.424;18.456;2023-03-31T00:34:08;8.52;;;4.00;;
53203;SDS011;39086;54.424;18.456;2023-03-31T00:35:11;10.65;;;4.50;;
53203;SDS011;39086;54.424;18.456;2023-03-31T00:36:14;5.38;;;3.55;;
53203;SDS011;39086;54.424;18.456;2023-03-31T00:37:23;4.95;;;4.05;;
53203;SDS011;39086;54.424;18.456;2023-03-31T00:38:25;8.38;;;4.35;;
53203;SDS011;39086;54.424;18.456;2023-03-31T00:39:29;8.52;;;4.70;;
53203;SDS011;39086;54.424;18.456;2023-03-31T00:40:35;9.30;;;3.90;;
53203;SDS011;39086;54.424;18.456;2023-03-31T00:41:38;8.65;;;4.45;;
53203;SDS011;39086;54.424;18.456;2023-03-31T00:42:42;5.93;;;4.40;;
53203;SDS011;39086;54.424;18.456;2023-03-31T00:44:00;4.97;;;3.95;;
53203;SDS011;39086;54.424;18.456;2023-03-31T00:45:23;9.18;;;4.57;;
53203;SDS011;39086;54.424;18.456;2023-03-31T00:46:29;5.07;;;4.18;;
53203;SDS011;39086;54.424;18.456;2023-03-31T00:47:32;5.47;;;4.03;;
53203;SDS011;39086;54.424;18.456;2023-03-31T00:48:35;7.38;;;4.18;;
53203;SDS011;39086;54.424;18.456;2023-03-31T00:49:40;10.35;;;4.70;;
53203;SDS011;39086;54.424;18.456;2023-03-31T00:50:46;7.60;;;4.03;;
53203;SDS011;39086;54.424;18.456;2023-03-31T00:51:51;6.18;;;3.70;;
53203;SDS011;39086;54.424;18.456;2023-03-31T00:52:57;5.28;;;4.00;;
53203;SDS011;39086;54.424;18.456;2023-03-31T00:54:03;5.47;;;3.90;;
53203;SDS011;39086;54.424;18.456;2023-03-31T00:55:09;4.82;;;3.83;;
53203;SDS011;39086;54.424;18.456;2023-03-31T00:56:13;6.10;;;4.25;;
53203;SDS011;39086;54.424;18.456;2023-03-31T00:57:18;7.15;;;4.30;;
53203;SDS011;39086;54.424;18.456;2023-03-31T00:58:21;9.68;;;3.92;;
53203;SDS011;39086;54.424;18.456;2023-03-31T00:59:29;10.40;;;4.28;;
53203;SDS011;39086;54.424;18.456;2023-03-31T01:00:32;6.18;;;3.65;;
53203;SDS011;39086;54.424;18.456;2023-03-31T01:01:35;9.93;;;4.65;;
53203;SDS011;39086;54.424;18.456;2023-03-31T01:02:39;6.53;;;3.95;;
53203;SDS011;39086;54.424;18.456;2023-03-31T01:03:46;8.10;;;4.20;;
53203;SDS011;39086;54.424;18.456;2023-03-31T01:04:51;7.20;;;3.47;;
53203;SDS011;39086;54.424;18.456;2023-03-31T01:05:55;5.38;;;4.30;;
53203;SDS011;39086;54.424;18.456;2023-03-31T01:07:01;6.00;;;3.70;;
53203;SDS011;39086;54.424;18.456;2023-03-31T01:08:06;10.70;;;3.78;;
53203;SDS011;39086;54.424;18.456;2023-03-31T01:09:09;5.72;;;3.67;;
53203;SDS011;39086;54.424;18.456;2023-03-31T01:10:12;6.60;;;3.80;;
53203;SDS011;39086;54.424;18.456;2023-03-31T01:11:17;11.88;;;3.78;;
53203;SDS011;39086;54.424;18.456;2023-03-31T01:12:19;8.70;;;4.00;;
53203;SDS011;39086;54.424;18.456;2023-03-31T01:13:23;7.95;;;3.97;;
53203;SDS011;39086;54.424;18.456;2023-03-31T01:14:26;10.15;;;3.78;;
53203;SDS011;39086;54.424;18.456;2023-03-31T01:15:30;11.40;;;3.88;;
53203;SDS011;39086;54.424;18.456;2023-03-31T01:16:32;7.63;;;3.75;;
53203;SDS011;39086;54.424;18.456;2023-03-31T01:17:35;4.95;;;3.25;;
53203;SDS011;39086;54.424;18.456;2023-03-31T01:18:38;6.50;;;2.90;;
53203;SDS011;39086;54.424;18.456;2023-03-31T01:19:51;5.50;;;3.53;;
53203;SDS011;39086;54.424;18.456;2023-03-31T01:21:17;5.55;;;2.90;;
53203;SDS011;39086;54.424;18.456;2023-03-31T01:22:38;3.97;;;2.78;;
53203;SDS011;39086;54.424;18.456;2023-03-31T01:23:51;7.78;;;2.90;;
53203;SDS011;39086;54.424;18.456;2023-03-31T01:27:54;5.80;;;2.88;;
53203;SDS011;39086;54.424;18.456;2023-03-31T01:29:01;7.45;;;3.58;;
53203;SDS011;39086;54.424;18.456;2023-03-31T01:30:21;8.32;;;3.65;;
53203;SDS011;39086;54.424;18.456;2023-03-31T01:32:56;4.47;;;3.30;;
53203;SDS011;39086;54.424;18.456;2023-03-31T01:34:21;8.27;;;3.28;;
53203;SDS011;39086;54.424;18.456;2023-03-31T01:35:32;6.47;;;3.17;;
53203;SDS011;39086;54.424;18.456;2023-03-31T01:38:15;7.85;;;2.90;;
53203;SDS011;39086;54.424;18.456;2023-03-31T01:39:26;5.00;;;3.10;;
53203;SDS011;39086;54.424;18.456;2023-03-31T01:40:39;4.82;;;3.00;;
53203;SDS011;39086;54.424;18.456;2023-03-31T01:41:46;5.43;;;3.33;;
53203;SDS011;39086;54.424;18.456;2023-03-31T01:42:51;6.53;;;3.28;;
53203;SDS011;39086;54.424;18.456;2023-03-31T01:43:57;6.50;;;4.03;;
53203;SDS011;39086;54.424;18.456;2023-03-31T01:45:06;6.28;;;3.85;;
53203;SDS011;39086;54.424;18.456;2023-03-31T01:46:14;7.68;;;3.50;;
53203;SDS011;39086;54.424;18.456;2023-03-31T01:47:23;5.53;;;3.90;;
53203;SDS011;39086;54.424;18.456;2023-03-31T01:48:31;5.22;;;3.25;;
53203;SDS011;39086;54.424;18.456;2023-03-31T01:49:38;6.80;;;3.90;;
53203;SDS011;39086;54.424;18.456;2023-03-31T01:50:43;4.03;;;3.38;;
53203;SDS011;39086;54.424;18.456;2023-03-31T01:51:48;6.43;;;3.20;;
53203;SDS011;39086;54.424;18.456;2023-03-31T01:52:55;7.70;;;3.45;;
53203;SDS011;39086;54.424;18.456;2023-03-31T01:54:00;6.28;;;3.45;;
53203;SDS011;39086;54.424;18.456;2023-03-31T01:55:05;4.57;;;3.33;;
53203;SDS011;39086;54.424;18.456;2023-03-31T01:56:12;7.10;;;3.30;;
53203;SDS011;39086;54.424;18.456;2023-03-31T01:57:17;5.18;;;3.25;;
53203;SDS011;39086;54.424;18.456;2023-03-31T01:58:22;4.75;;;3.25;;
53203;SDS011;39086;54.424;18.456;2023-03-31T01:59:26;6.28;;;3.55;;
53203;SDS011;39086;54.424;18.456;2023-03-31T02:00:30;6.60;;;3.33;;
53203;SDS011;39086;54.424;18.456;2023-03-31T02:01:35;5.90;;;3.00;;
53203;SDS011;39086;54.424;18.456;2023-03-31T02:02:41;8.45;;;3.25;;
53203;SDS011;39086;54.424;18.456;2023-03-31T02:03:45;6.97;;;3.05;;
53203;SDS011;39086;54.424;18.456;2023-03-31T02:04:51;5.10;;;3.25;;
53203;SDS011;39086;54.424;18.456;2023-03-31T02:05:55;4.53;;;3.30;;
53203;SDS011;39086;54.424;18.456;2023-03-31T02:07:00;5.65;;;3.15;;
53203;SDS011;39086;54.424;18.456;2023-03-31T02:08:05;3.75;;;3.42;;
53203;SDS011;39086;54.424;18.456;2023-03-31T02:09:11;5.80;;;3.53;;
53203;SDS011;39086;54.424;18.456;2023-03-31T02:10:14;5.47;;;3.30;;
53203;SDS011;39086;54.424;18.456;2023-03-31T02:11:20;9.90;;;3.55;;
53203;SDS011;39086;54.424;18.456;2023-03-31T02:12:23;6.30;;;3.22;;
53203;SDS011;39086;54.424;18.456;2023-03-31T02:13:28;8.95;;;3.42;;
53203;SDS011;39086;54.424;18.456;2023-03-31T02:14:30;9.18;;;4.15;;
53203;SDS011;39086;54.424;18.456;2023-03-31T02:15:35;8.43;;;3.33;;
53203;SDS011;39086;54.424;18.456;2023-03-31T02:16:41;10.55;;;3.63;;
53203;SDS011;39086;54.424;18.456;2023-03-31T02:17:48;5.13;;;3.13;;
53203;SDS011;39086;54.424;18.456;2023-03-31T02:18:52;5.05;;;3.00;;
53203;SDS011;39086;54.424;18.456;2023-03-31T02:20:04;7.15;;;3.50;;
53203;SDS011;39086;54.424;18.456;2023-03-31T02:21:07;5.88;;;3.30;;
53203;SDS011;39086;54.424;18.456;2023-03-31T02:22:12;4.78;;;3.78;;
53203;SDS011;39086;54.424;18.456;2023-03-31T02:23:15;8.07;;;3.75;;
53203;SDS011;39086;54.424;18.456;2023-03-31T02:24:20;5.63;;;3.20;;
53203;SDS011;39086;54.424;18.456;2023-03-31T02:25:26;7.75;;;3.45;;
53203;SDS011;39086;54.424;18.456;2023-03-31T02:26:33;5.00;;;3.20;;
53203;SDS011;39086;54.424;18.456;2023-03-31T02:27:37;4.13;;;3.30;;
53203;SDS011;39086;54.424;18.456;2023-03-31T02:28:42;6.18;;;3.70;;
53203;SDS011;39086;54.424;18.456;2023-03-31T02:29:44;7.80;;;3.47;;
53203;SDS011;39086;54.424;18.456;2023-03-31T02:30:50;8.15;;;3.70;;
53203;SDS011;39086;54.424;18.456;2023-03-31T02:31:55;5.40;;;3.42;;
53203;SDS011;39086;54.424;18.456;2023-03-31T02:33:00;6.05;;;3.65;;
53203;SDS011;39086;54.424;18.456;2023-03-31T02:34:04;5.85;;;3.20;;
53203;SDS011;39086;54.424;18.456;2023-03-31T02:35:09;4.53;;;3.28;;
53203;SDS011;39086;54.424;18.456;2023-03-31T02:36:13;6.32;;;3.60;;
53203;SDS011;39086;54.424;18.456;2023-03-31T02:37:16;5.78;;;3.55;;
53203;SDS011;39086;54.424;18.456;2023-03-31T02:38:18;4.40;;;3.03;;
53203;SDS011;39086;54.424;18.456;2023-03-31T02:39:23;6.57;;;3.42;;
53203;SDS011;39086;54.424;18.456;2023-03-31T02:40:27;6.85;;;3.00;;
53203;SDS011;39086;54.424;18.456;2023-03-31T02:41:31;4.57;;;3.10;;
53203;SDS011;39086;54.424;18.456;2023-03-31T02:42:36;6.30;;;3.58;;
53203;SDS011;39086;54.424;18.456;2023-03-31T02:43:38;7.78;;;3.30;;
53203;SDS011;39086;54.424;18.456;2023-03-31T02:44:42;7.78;;;3.90;;
53203;SDS011;39086;54.424;18.456;2023-03-31T02:45:44;6.07;;;3.45;;
53203;SDS011;39086;54.424;18.456;2023-03-31T02:46:49;6.20;;;3.50;;
53203;SDS011;39086;54.424;18.456;2023-03-31T02:47:52;7.72;;;3.70;;
53203;SDS011;39086;54.424;18.456;2023-03-31T02:48:56;5.65;;;3.70;;
53203;SDS011;39086;54.424;18.456;2023-03-31T02:50:00;7.82;;;3.78;;
53203;SDS011;39086;54.424;18.456;2023-03-31T02:51:08;6.47;;;3.78;;
53203;SDS011;39086;54.424;18.456;2023-03-31T02:52:26;5.60;;;3.53;;
53203;SDS011;39086;54.424;18.456;2023-03-31T02:53:35;6.75;;;3.38;;
53203;SDS011;39086;54.424;18.456;2023-03-31T02:54:53;7.25;;;3.92;;
53203;SDS011;39086;54.424;18.456;2023-03-31T02:56:04;3.85;;;3.40;;
53203;SDS011;39086;54.424;18.456;2023-03-31T02:57:20;4.70;;;3.65;;
53203;SDS011;39086;54.424;18.456;2023-03-31T02:58:35;8.18;;;3.70;;
53203;SDS011;39086;54.424;18.456;2023-03-31T02:59:44;4.30;;;3.63;;
53203;SDS011;39086;54.424;18.456;2023-03-31T03:02:13;6.80;;;3.92;;
53203;SDS011;39086;54.424;18.456;2023-03-31T03:03:23;5.65;;;3.92;;
53203;SDS011;39086;54.424;18.456;2023-03-31T03:04:38;5.57;;;4.10;;
53203;SDS011;39086;54.424;18.456;2023-03-31T03:05:46;5.70;;;3.90;;
53203;SDS011;39086;54.424;18.456;2023-03-31T03:06:52;5.80;;;3.97;;
53203;SDS011;39086;54.424;18.456;2023-03-31T03:07:58;5.60;;;4.00;;
53203;SDS011;39086;54.424;18.456;2023-03-31T03:09:07;8.27;;;4.30;;
53203;SDS011;39086;54.424;18.456;2023-03-31T03:10:19;11.88;;;4.30;;
53203;SDS011;39086;54.424;18.456;2023-03-31T03:11:26;7.28;;;4.18;;
53203;SDS011;39086;54.424;18.456;2023-03-31T03:12:36;7.70;;;4.00;;
53203;SDS011;39086;54.424;18.456;2023-03-31T03:13:44;5.25;;;4.13;;
53203;SDS011;39086;54.424;18.456;2023-03-31T03:14:49;9.32;;;4.07;;
53203;SDS011;39086;54.424;18.456;2023-03-31T03:15:54;5.95;;;4.32;;
53203;SDS011;39086;54.424;18.456;2023-03-31T03:17:00;6.25;;;4.32;;
53203;SDS011;39086;54.424;18.456;2023-03-31T03:18:04;5.32;;;3.95;;
53203;SDS011;39086;54.424;18.456;2023-03-31T03:19:07;7.45;;;4.18;;
53203;SDS011;39086;54.424;18.456;2023-03-31T03:20:10;6.45;;;4.53;;
53203;SDS011;39086;54.424;18.456;2023-03-31T03:21:14;9.55;;;4.75;;
53203;SDS011;39086;54.424;18.456;2023-03-31T03:22:16;8.68;;;5.00;;
53203;SDS011;39086;54.424;18.456;2023-03-31T03:23:20;11.18;;;5.07;;
53203;SDS011;39086;54.424;18.456;2023-03-31T03:24:22;6.10;;;4.50;;
53203;SDS011;39086;54.424;18.456;2023-03-31T03:25:29;7.88;;;5.00;;
53203;SDS011;39086;54.424;18.456;2023-03-31T03:26:32;7.75;;;4.47;;
53203;SDS011;39086;54.424;18.456;2023-03-31T03:27:35;8.63;;;5.00;;
53203;SDS011;39086;54.424;18.456;2023-03-31T03:28:37;7.63;;;4.53;;
53203;SDS011;39086;54.424;18.456;2023-03-31T03:29:42;7.32;;;4.50;;
53203;SDS011;39086;54.424;18.456;2023-03-31T03:30:45;6.78;;;4.72;;
53203;SDS011;39086;54.424;18.456;2023-03-31T03:31:48;9.10;;;4.78;;
53203;SDS011;39086;54.424;18.456;2023-03-31T03:32:50;9.02;;;4.38;;
53203;SDS011;39086;54.424;18.456;2023-03-31T03:33:54;5.82;;;4.38;;
53203;SDS011;39086;54.424;18.456;2023-03-31T03:34:57;8.02;;;4.88;;
53203;SDS011;39086;54.424;18.456;2023-03-31T03:36:00;7.22;;;4.43;;
53203;SDS011;39086;54.424;18.456;2023-03-31T03:37:03;8.65;;;4.40;;
53203;SDS011;39086;54.424;18.456;2023-03-31T03:38:06;7.43;;;4.40;;
53203;SDS011;39086;54.424;18.456;2023-03-31T03:39:08;8.82;;;4.45;;
53203;SDS011;39086;54.424;18.456;2023-03-31T03:40:12;7.53;;;4.40;;
53203;SDS011;39086;54.424;18.456;2023-03-31T03:41:15;5.97;;;4.18;;
53203;SDS011;39086;54.424;18.456;2023-03-31T03:42:19;6.00;;;4.18;;
53203;SDS011;39086;54.424;18.456;2023-03-31T03:43:21;9.43;;;4.50;;
53203;SDS011;39086;54.424;18.456;2023-03-31T03:44:24;6.90;;;4.10;;
53203;SDS011;39086;54.424;18.456;2023-03-31T03:45:28;6.05;;;4.40;;
53203;SDS011;39086;54.424;18.456;2023-03-31T03:46:31;8.15;;;4.82;;
53203;SDS011;39086;54.424;18.456;2023-03-31T03:47:34;9.25;;;4.50;;
53203;SDS011;39086;54.424;18.456;2023-03-31T03:48:37;15.25;;;4.85;;
53203;SDS011;39086;54.424;18.456;2023-03-31T03:49:40;6.20;;;4.70;;
53203;SDS011;39086;54.424;18.456;2023-03-31T03:50:43;4.43;;;4.03;;
53203;SDS011;39086;54.424;18.456;2023-03-31T03:51:46;7.68;;;4.25;;
53203;SDS011;39086;54.424;18.456;2023-03-31T03:52:49;7.50;;;3.97;;
53203;SDS011;39086;54.424;18.456;2023-03-31T03:53:51;7.97;;;4.80;;
53203;SDS011;39086;54.424;18.456;2023-03-31T03:54:55;9.20;;;4.72;;
53203;SDS011;39086;54.424;18.456;2023-03-31T03:55:57;8.35;;;4.00;;
53203;SDS011;39086;54.424;18.456;2023-03-31T03:57:01;9.45;;;4.75;;
53203;SDS011;39086;54.424;18.456;2023-03-31T03:58:04;9.05;;;4.68;;
53203;SDS011;39086;54.424;18.456;2023-03-31T03:59:07;8.57;;;4.60;;
53203;SDS011;39086;54.424;18.456;2023-03-31T04:00:10;8.57;;;5.10;;
53203;SDS011;39086;54.424;18.456;2023-03-31T04:01:14;9.73;;;4.72;;
53203;SDS011;39086;54.424;18.456;2023-03-31T04:02:18;6.65;;;4.28;;
53203;SDS011;39086;54.424;18.456;2023-03-31T04:03:21;7.20;;;4.55;;
53203;SDS011;39086;54.424;18.456;2023-03-31T04:04:24;8.07;;;4.85;;
53203;SDS011;39086;54.424;18.456;2023-03-31T04:05:27;7.47;;;4.78;;
53203;SDS011;39086;54.424;18.456;2023-03-31T04:06:29;10.55;;;4.88;;
53203;SDS011;39086;54.424;18.456;2023-03-31T04:07:33;6.18;;;4.50;;
53203;SDS011;39086;54.424;18.456;2023-03-31T04:08:35;6.07;;;4.43;;
53203;SDS011;39086;54.424;18.456;2023-03-31T04:09:38;7.45;;;4.40;;
53203;SDS011;39086;54.424;18.456;2023-03-31T04:10:42;7.90;;;4.85;;
53203;SDS011;39086;54.424;18.456;2023-03-31T04:11:46;6.75;;;4.38;;
53203;SDS011;39086;54.424;18.456;2023-03-31T04:12:48;6.82;;;4.18;;
53203;SDS011;39086;54.424;18.456;2023-03-31T04:13:52;7.57;;;4.45;;
53203;SDS011;39086;54.424;18.456;2023-03-31T04:14:54;6.45;;;3.78;;
53203;SDS011;39086;54.424;18.456;2023-03-31T04:15:58;8.02;;;4.72;;
53203;SDS011;39086;54.424;18.456;2023-03-31T04:17:02;8.18;;;4.85;;
53203;SDS011;39086;54.424;18.456;2023-03-31T04:18:05;7.93;;;4.13;;
53203;SDS011;39086;54.424;18.456;2023-03-31T04:19:11;8.25;;;4.68;;
53203;SDS011;39086;54.424;18.456;2023-03-31T04:20:17;8.90;;;4.65;;
53203;SDS011;39086;54.424;18.456;2023-03-31T04:21:20;8.77;;;4.80;;
53203;SDS011;39086;54.424;18.456;2023-03-31T04:22:23;6.43;;;4.50;;
53203;SDS011;39086;54.424;18.456;2023-03-31T04:23:29;9.45;;;4.50;;
53203;SDS011;39086;54.424;18.456;2023-03-31T04:24:33;5.75;;;4.13;;
53203;SDS011;39086;54.424;18.456;2023-03-31T04:25:38;8.93;;;4.82;;
53203;SDS011;39086;54.424;18.456;2023-03-31T04:26:46;4.35;;;3.95;;
53203;SDS011;39086;54.424;18.456;2023-03-31T04:27:51;5.90;;;4.20;;
53203;SDS011;39086;54.424;18.456;2023-03-31T04:28:56;4.78;;;4.07;;
53203;SDS011;39086;54.424;18.456;2023-03-31T04:30:00;7.97;;;4.25;;
53203;SDS011;39086;54.424;18.456;2023-03-31T04:31:04;5.50;;;4.22;;
53203;SDS011;39086;54.424;18.456;2023-03-31T04:32:08;8.23;;;4.47;;
53203;SDS011;39086;54.424;18.456;2023-03-31T04:33:15;9.93;;;4.25;;
53203;SDS011;39086;54.424;18.456;2023-03-31T04:34:17;7.43;;;4.05;;
53203;SDS011;39086;54.424;18.456;2023-03-31T04:35:23;7.65;;;4.25;;
53203;SDS011;39086;54.424;18.456;2023-03-31T04:36:25;7.28;;;4.40;;
53203;SDS011;39086;54.424;18.456;2023-03-31T04:37:29;7.97;;;4.43;;
53203;SDS011;39086;54.424;18.456;2023-03-31T04:38:35;7.75;;;4.28;;
53203;SDS011;39086;54.424;18.456;2023-03-31T04:39:38;6.88;;;4.57;;
53203;SDS011;39086;54.424;18.456;2023-03-31T04:40:40;5.65;;;4.15;;
53203;SDS011;39086;54.424;18.456;2023-03-31T04:41:44;10.20;;;4.43;;
53203;SDS011;39086;54.424;18.456;2023-03-31T04:42:46;8.82;;;4.53;;
53203;SDS011;39086;54.424;18.456;2023-03-31T04:43:49;6.18;;;4.30;;
53203;SDS011;39086;54.424;18.456;2023-03-31T04:44:52;4.95;;;3.97;;
53203;SDS011;39086;54.424;18.456;2023-03-31T04:45:55;4.20;;;3.72;;
53203;SDS011;39086;54.424;18.456;2023-03-31T04:46:57;5.28;;;4.10;;
53203;SDS011;39086;54.424;18.456;2023-03-31T04:48:05;8.48;;;4.65;;
53203;SDS011;39086;54.424;18.456;2023-03-31T04:49:07;6.40;;;3.67;;
53203;SDS011;39086;54.424;18.456;2023-03-31T04:50:10;8.50;;;4.10;;
53203;SDS011;39086;54.424;18.456;2023-03-31T04:51:17;7.28;;;4.25;;
53203;SDS011;39086;54.424;18.456;2023-03-31T04:52:20;6.63;;;4.25;;
53203;SDS011;39086;54.424;18.456;2023-03-31T04:53:22;5.00;;;4.05;;
53203;SDS011;39086;54.424;18.456;2023-03-31T04:54:26;6.05;;;4.18;;
53203;SDS011;39086;54.424;18.456;2023-03-31T04:55:28;7.63;;;3.85;;
53203;SDS011;39086;54.424;18.456;2023-03-31T04:56:32;6.55;;;4.15;;
53203;SDS011;39086;54.424;18.456;2023-03-31T04:57:35;6.95;;;4.20;;
53203;SDS011;39086;54.424;18.456;2023-03-31T04:58:38;5.22;;;3.70;;
53203;SDS011;39086;54.424;18.456;2023-03-31T04:59:41;5.00;;;4.18;;
53203;SDS011;39086;54.424;18.456;2023-03-31T05:00:43;7.80;;;4.32;;
53203;SDS011;39086;54.424;18.456;2023-03-31T05:01:47;7.63;;;4.22;;
53203;SDS011;39086;54.424;18.456;2023-03-31T05:02:49;4.32;;;3.85;;
53203;SDS011;39086;54.424;18.456;2023-03-31T05:03:54;4.90;;;4.15;;
53203;SDS011;39086;54.424;18.456;2023-03-31T05:04:56;7.80;;;4.38;;
53203;SDS011;39086;54.424;18.456;2023-03-31T05:06:00;8.07;;;4.40;;
53203;SDS011;39086;54.424;18.456;2023-03-31T05:07:02;7.72;;;4.25;;
53203;SDS011;39086;54.424;18.456;2023-03-31T05:08:06;5.05;;;4.38;;
53203;SDS011;39086;54.424;18.456;2023-03-31T05:09:08;9.93;;;4.97;;
53203;SDS011;39086;54.424;18.456;2023-03-31T05:10:13;7.20;;;4.68;;
53203;SDS011;39086;54.424;18.456;2023-03-31T05:11:15;5.38;;;4.30;;
53203;SDS011;39086;54.424;18.456;2023-03-31T05:12:18;6.22;;;4.45;;
53203;SDS011;39086;54.424;18.456;2023-03-31T05:13:21;9.00;;;4.82;;
53203;SDS011;39086;54.424;18.456;2023-03-31T05:14:25;5.50;;;4.30;;
53203;SDS011;39086;54.424;18.456;2023-03-31T05:15:28;9.00;;;4.90;;
53203;SDS011;39086;54.424;18.456;2023-03-31T05:16:31;7.95;;;4.95;;
53203;SDS011;39086;54.424;18.456;2023-03-31T05:17:34;8.55;;;4.72;;
53203;SDS011;39086;54.424;18.456;2023-03-31T05:18:37;9.50;;;4.65;;
53203;SDS011;39086;54.424;18.456;2023-03-31T05:19:42;9.77;;;4.50;;
53203;SDS011;39086;54.424;18.456;2023-03-31T05:20:45;5.60;;;4.95;;
53203;SDS011;39086;54.424;18.456;2023-03-31T05:21:47;5.78;;;4.70;;
53203;SDS011;39086;54.424;18.456;2023-03-31T05:22:51;6.72;;;5.07;;
53203;SDS011;39086;54.424;18.456;2023-03-31T05:23:54;7.40;;;4.75;;
53203;SDS011;39086;54.424;18.456;2023-03-31T05:24:56;7.70;;;5.13;;
53203;SDS011;39086;54.424;18.456;2023-03-31T05:26:00;6.70;;;4.60;;
53203;SDS011;39086;54.424;18.456;2023-03-31T05:27:02;6.68;;;4.70;;
53203;SDS011;39086;54.424;18.456;2023-03-31T05:28:06;5.75;;;4.90;;
53203;SDS011;39086;54.424;18.456;2023-03-31T05:29:08;8.60;;;5.50;;
53203;SDS011;39086;54.424;18.456;2023-03-31T05:30:12;6.63;;;4.55;;
53203;SDS011;39086;54.424;18.456;2023-03-31T05:31:15;8.32;;;5.57;;
53203;SDS011;39086;54.424;18.456;2023-03-31T05:32:18;7.45;;;6.20;;
53203;SDS011;39086;54.424;18.456;2023-03-31T05:33:20;11.70;;;6.13;;
53203;SDS011;39086;54.424;18.456;2023-03-31T05:34:24;9.05;;;5.55;;
53203;SDS011;39086;54.424;18.456;2023-03-31T05:35:27;8.88;;;5.55;;
53203;SDS011;39086;54.424;18.456;2023-03-31T05:36:31;8.93;;;6.63;;
53203;SDS011;39086;54.424;18.456;2023-03-31T05:37:33;11.82;;;5.97;;
53203;SDS011;39086;54.424;18.456;2023-03-31T05:38:36;11.27;;;6.38;;
53203;SDS011;39086;54.424;18.456;2023-03-31T05:39:39;10.18;;;5.57;;
53203;SDS011;39086;54.424;18.456;2023-03-31T05:40:42;9.98;;;5.40;;
53203;SDS011;39086;54.424;18.456;2023-03-31T05:41:44;8.60;;;5.78;;
53203;SDS011;39086;54.424;18.456;2023-03-31T05:42:48;8.93;;;5.78;;
53203;SDS011;39086;54.424;18.456;2023-03-31T05:43:50;10.05;;;5.55;;
53203;SDS011;39086;54.424;18.456;2023-03-31T05:44:53;11.50;;;5.70;;
53203;SDS011;39086;54.424;18.456;2023-03-31T05:45:56;7.00;;;5.43;;
53203;SDS011;39086;54.424;18.456;2023-03-31T05:46:59;7.85;;;5.45;;
53203;SDS011;39086;54.424;18.456;2023-03-31T05:48:01;7.22;;;5.40;;
53203;SDS011;39086;54.424;18.456;2023-03-31T05:49:05;10.02;;;5.50;;
53203;SDS011;39086;54.424;18.456;2023-03-31T05:50:07;8.35;;;5.50;;
53203;SDS011;39086;54.424;18.456;2023-03-31T05:51:16;12.63;;;5.78;;
53203;SDS011;39086;54.424;18.456;2023-03-31T05:52:19;8.43;;;5.85;;
53203;SDS011;39086;54.424;18.456;2023-03-31T05:53:21;9.07;;;5.45;;
53203;SDS011;39086;54.424;18.456;2023-03-31T05:54:25;8.25;;;5.70;;
53203;SDS011;39086;54.424;18.456;2023-03-31T05:55:28;7.88;;;5.82;;
53203;SDS011;39086;54.424;18.456;2023-03-31T05:56:33;6.63;;;5.40;;
53203;SDS011;39086;54.424;18.456;2023-03-31T05:57:37;9.20;;;5.90;;
53203;SDS011;39086;54.424;18.456;2023-03-31T05:58:39;8.60;;;5.57;;
53203;SDS011;39086;54.424;18.456;2023-03-31T05:59:42;7.82;;;5.95;;
53203;SDS011;39086;54.424;18.456;2023-03-31T06:00:45;8.27;;;5.90;;
53203;SDS011;39086;54.424;18.456;2023-03-31T06:01:48;7.15;;;5.72;;
53203;SDS011;39086;54.424;18.456;2023-03-31T06:02:51;7.55;;;5.85;;
53203;SDS011;39086;54.424;18.456;2023-03-31T06:03:54;8.05;;;5.78;;
53203;SDS011;39086;54.424;18.456;2023-03-31T06:04:58;10.45;;;6.03;;
53203;SDS011;39086;54.424;18.456;2023-03-31T06:06:00;11.43;;;6.20;;
53203;SDS011;39086;54.424;18.456;2023-03-31T06:07:06;6.95;;;5.50;;
53203;SDS011;39086;54.424;18.456;2023-03-31T06:08:10;8.35;;;6.20;;
53203;SDS011;39086;54.424;18.456;2023-03-31T06:09:12;6.10;;;5.32;;
53203;SDS011;39086;54.424;18.456;2023-03-31T06:10:16;13.88;;;6.03;;
53203;SDS011;39086;54.424;18.456;2023-03-31T06:11:20;6.40;;;5.63;;
53203;SDS011;39086;54.424;18.456;2023-03-31T06:12:22;6.43;;;5.30;;
53203;SDS011;39086;54.424;18.456;2023-03-31T06:13:25;9.60;;;6.25;;
53203;SDS011;39086;54.424;18.456;2023-03-31T06:14:28;11.90;;;5.88;;
53203;SDS011;39086;54.424;18.456;2023-03-31T06:15:31;7.57;;;5.80;;
53203;SDS011;39086;54.424;18.456;2023-03-31T06:16:33;9.88;;;6.38;;
53203;SDS011;39086;54.424;18.456;2023-03-31T06:17:37;9.40;;;5.43;;
53203;SDS011;39086;54.424;18.456;2023-03-31T06:18:40;10.30;;;6.00;;
53203;SDS011;39086;54.424;18.456;2023-03-31T06:19:43;10.60;;;5.72;;
53203;SDS011;39086;54.424;18.456;2023-03-31T06:20:46;7.40;;;5.90;;
53203;SDS011;39086;54.424;18.456;2023-03-31T06:21:49;6.57;;;5.88;;
53203;SDS011;39086;54.424;18.456;2023-03-31T06:22:54;13.07;;;6.00;;
53203;SDS011;39086;54.424;18.456;2023-03-31T06:23:57;9.13;;;5.85;;
53203;SDS011;39086;54.424;18.456;2023-03-31T06:25:00;10.90;;;6.03;;
53203;SDS011;39086;54.424;18.456;2023-03-31T06:26:04;10.07;;;5.90;;
53203;SDS011;39086;54.424;18.456;2023-03-31T06:27:08;10.45;;;6.22;;
53203;SDS011;39086;54.424;18.456;2023-03-31T06:28:12;6.97;;;5.63;;
53203;SDS011;39086;54.424;18.456;2023-03-31T06:29:14;9.27;;;5.20;;
53203;SDS011;39086;54.424;18.456;2023-03-31T06:30:17;10.70;;;6.65;;